sensor_id;sensor_type;location;lat;lon;timestamp;P1;durP1;ratioP1;P2;durP2;ratioP2
36475;SDS011;56615;42.682;23.364;2023-05-14T00:00:26;4.88;;;3.08;;
36475;SDS011;56615;42.682;23.364;2023-05-14T00:02:55;7.55;;;3.50;;
36475;SDS011;56615;42.682;23.364;2023-05-14T00:05:23;8.27;;;3.70;;
36475;SDS011;56615;42.682;23.364;2023-05-14T00:07:59;5.50;;;3.30;;
36475;SDS011;56615;42.682;23.364;2023-05-14T00:10:49;6.30;;;3.05;;
36475;SDS011;56615;42.682;23.364;2023-05-14T00:13:26;6.55;;;3.22;;
36475;SDS011;56615;42.682;23.364;2023-05-14T00:16:20;7.60;;;3.28;;
36475;SDS011;56615;42.682;23.364;2023-05-14T00:18:58;7.05;;;3.05;;
36475;SDS011;56615;42.682;23.364;2023-05-14T00:21:26;8.68;;;3.25;;
36475;SDS011;56615;42.682;23.364;2023-05-14T00:23:58;6.32;;;3.03;;
36475;SDS011;56615;42.682;23.364;2023-05-14T00:33:10;5.95;;;3.15;;
36475;SDS011;56615;42.682;23.364;2023-05-14T00:35:41;6.28;;;3.28;;
36475;SDS011;56615;42.682;23.364;2023-05-14T00:38:19;6.47;;;3.30;;
36475;SDS011;56615;42.682;23.364;2023-05-14T00:41:13;6.07;;;3.17;;
36475;SDS011;56615;42.682;23.364;2023-05-14T00:43:50;5.63;;;3.47;;
36475;SDS011;56615;42.682;23.364;2023-05-14T00:46:19;6.78;;;3.35;;
36475;SDS011;56615;42.682;23.364;2023-05-14T00:48:53;5.55;;;2.92;;
36475;SDS011;56615;42.682;23.364;2023-05-14T00:51:23;7.10;;;3.20;;
36475;SDS011;56615;42.682;23.364;2023-05-14T00:53:53;6.80;;;3.20;;
36475;SDS011;56615;42.682;23.364;2023-05-14T00:56:23;7.35;;;2.90;;
36475;SDS011;56615;42.682;23.364;2023-05-14T00:58:54;6.30;;;3.15;;
36475;SDS011;56615;42.682;23.364;2023-05-14T01:01:20;7.90;;;3.15;;
36475;SDS011;56615;42.682;23.364;2023-05-14T01:03:46;4.93;;;3.03;;
36475;SDS011;56615;42.682;23.364;2023-05-14T01:06:15;6.10;;;3.20;;
36475;SDS011;56615;42.682;23.364;2023-05-14T01:09:07;9.93;;;3.30;;
36475;SDS011;56615;42.682;23.364;2023-05-14T01:18:03;7.22;;;2.70;;
36475;SDS011;56615;42.682;23.364;2023-05-14T01:20:38;5.05;;;2.85;;
36475;SDS011;56615;42.682;23.364;2023-05-14T01:23:06;5.30;;;2.60;;
36475;SDS011;56615;42.682;23.364;2023-05-14T01:25:36;6.20;;;2.90;;
36475;SDS011;56615;42.682;23.364;2023-05-14T01:28:27;5.20;;;2.65;;
36475;SDS011;56615;42.682;23.364;2023-05-14T01:31:11;5.47;;;2.97;;
36475;SDS011;56615;42.682;23.364;2023-05-14T01:33:55;6.22;;;2.80;;
36475;SDS011;56615;42.682;23.364;2023-05-14T01:36:26;5.43;;;2.50;;
36475;SDS011;56615;42.682;23.364;2023-05-14T01:42:22;4.97;;;2.53;;
36475;SDS011;56615;42.682;23.364;2023-05-14T01:44:51;6.05;;;2.50;;
36475;SDS011;56615;42.682;23.364;2023-05-14T01:47:22;5.78;;;2.45;;
36475;SDS011;56615;42.682;23.364;2023-05-14T01:53:21;6.50;;;2.45;;
36475;SDS011;56615;42.682;23.364;2023-05-14T01:56:12;4.30;;;2.45;;
36475;SDS011;56615;42.682;23.364;2023-05-14T01:58:53;4.72;;;2.60;;
36475;SDS011;56615;42.682;23.364;2023-05-14T02:01:26;5.60;;;2.70;;
36475;SDS011;56615;42.682;23.364;2023-05-14T02:04:04;5.03;;;2.25;;
36475;SDS011;56615;42.682;23.364;2023-05-14T02:06:50;5.55;;;2.78;;
36475;SDS011;56615;42.682;23.364;2023-05-14T02:09:26;5.78;;;2.33;;
36475;SDS011;56615;42.682;23.364;2023-05-14T02:12:10;5.05;;;2.47;;
36475;SDS011;56615;42.682;23.364;2023-05-14T02:14:39;7.07;;;2.40;;
36475;SDS011;56615;42.682;23.364;2023-05-14T02:17:24;5.35;;;2.65;;
36475;SDS011;56615;42.682;23.364;2023-05-14T02:20:07;4.55;;;2.45;;
36475;SDS011;56615;42.682;23.364;2023-05-14T02:22:44;5.05;;;2.80;;
36475;SDS011;56615;42.682;23.364;2023-05-14T02:25:14;6.10;;;2.65;;
36475;SDS011;56615;42.682;23.364;2023-05-14T02:28:07;3.78;;;2.40;;
36475;SDS011;56615;42.682;23.364;2023-05-14T02:30:35;6.35;;;2.20;;
36475;SDS011;56615;42.682;23.364;2023-05-14T02:33:02;4.28;;;2.60;;
36475;SDS011;56615;42.682;23.364;2023-05-14T02:35:32;6.25;;;2.55;;
36475;SDS011;56615;42.682;23.364;2023-05-14T02:38:00;4.05;;;2.42;;
36475;SDS011;56615;42.682;23.364;2023-05-14T02:43:37;5.75;;;2.58;;
36475;SDS011;56615;42.682;23.364;2023-05-14T02:46:06;4.55;;;2.50;;
36475;SDS011;56615;42.682;23.364;2023-05-14T02:48:40;7.80;;;3.28;;
36475;SDS011;56615;42.682;23.364;2023-05-14T02:51:07;5.43;;;2.65;;
36475;SDS011;56615;42.682;23.364;2023-05-14T02:53:35;4.35;;;2.33;;
36475;SDS011;56615;42.682;23.364;2023-05-14T02:56:09;5.93;;;2.75;;
36475;SDS011;56615;42.682;23.364;2023-05-14T02:59:10;4.75;;;2.50;;
36475;SDS011;56615;42.682;23.364;2023-05-14T03:01:54;7.93;;;2.40;;
36475;SDS011;56615;42.682;23.364;2023-05-14T03:04:27;5.65;;;2.58;;
36475;SDS011;56615;42.682;23.364;2023-05-14T03:07:17;3.92;;;2.30;;
36475;SDS011;56615;42.682;23.364;2023-05-14T03:10:05;5.35;;;2.75;;
36475;SDS011;56615;42.682;23.364;2023-05-14T03:12:36;6.22;;;2.70;;
36475;SDS011;56615;42.682;23.364;2023-05-14T03:15:27;4.88;;;2.55;;
36475;SDS011;56615;42.682;23.364;2023-05-14T03:17:57;4.38;;;2.50;;
36475;SDS011;56615;42.682;23.364;2023-05-14T03:24:24;5.60;;;2.40;;
36475;SDS011;56615;42.682;23.364;2023-05-14T03:26:51;3.47;;;2.53;;
36475;SDS011;56615;42.682;23.364;2023-05-14T03:29:27;5.70;;;2.72;;
36475;SDS011;56615;42.682;23.364;2023-05-14T03:31:53;7.05;;;2.67;;
36475;SDS011;56615;42.682;23.364;2023-05-14T03:34:22;5.88;;;2.70;;
36475;SDS011;56615;42.682;23.364;2023-05-14T03:37:16;5.30;;;2.85;;
36475;SDS011;56615;42.682;23.364;2023-05-14T03:40:05;5.57;;;2.83;;
36475;SDS011;56615;42.682;23.364;2023-05-14T03:42:39;4.68;;;2.90;;
36475;SDS011;56615;42.682;23.364;2023-05-14T03:45:08;4.28;;;2.70;;
36475;SDS011;56615;42.682;23.364;2023-05-14T03:48:00;4.15;;;2.65;;
36475;SDS011;56615;42.682;23.364;2023-05-14T03:50:39;6.00;;;3.28;;
36475;SDS011;56615;42.682;23.364;2023-05-14T03:53:18;4.60;;;2.90;;
36475;SDS011;56615;42.682;23.364;2023-05-14T03:55:56;5.05;;;2.88;;
36475;SDS011;56615;42.682;23.364;2023-05-14T03:58:59;5.10;;;2.85;;
36475;SDS011;56615;42.682;23.364;2023-05-14T04:01:37;5.75;;;2.88;;
36475;SDS011;56615;42.682;23.364;2023-05-14T04:04:26;7.22;;;2.85;;
36475;SDS011;56615;42.682;23.364;2023-05-14T04:07:05;5.28;;;2.65;;
36475;SDS011;56615;42.682;23.364;2023-05-14T04:09:34;5.07;;;2.90;;
36475;SDS011;56615;42.682;23.364;2023-05-14T04:15:37;6.07;;;3.13;;
36475;SDS011;56615;42.682;23.364;2023-05-14T04:18:30;6.93;;;2.97;;
36475;SDS011;56615;42.682;23.364;2023-05-14T04:21:00;5.47;;;3.05;;
36475;SDS011;56615;42.682;23.364;2023-05-14T04:23:32;7.95;;;3.08;;
36475;SDS011;56615;42.682;23.364;2023-05-14T04:26:22;5.70;;;3.13;;
36475;SDS011;56615;42.682;23.364;2023-05-14T04:29:15;5.88;;;3.00;;
36475;SDS011;56615;42.682;23.364;2023-05-14T04:31:54;6.05;;;3.10;;
36475;SDS011;56615;42.682;23.364;2023-05-14T04:34:30;5.90;;;2.72;;
36475;SDS011;56615;42.682;23.364;2023-05-14T04:37:04;5.13;;;2.85;;
36475;SDS011;56615;42.682;23.364;2023-05-14T04:39:46;6.85;;;2.70;;
36475;SDS011;56615;42.682;23.364;2023-05-14T04:52:09;5.35;;;3.00;;
36475;SDS011;56615;42.682;23.364;2023-05-14T04:54:52;4.90;;;2.80;;
36475;SDS011;56615;42.682;23.364;2023-05-14T05:00:35;4.97;;;2.85;;
36475;SDS011;56615;42.682;23.364;2023-05-14T05:03:19;4.68;;;2.83;;
36475;SDS011;56615;42.682;23.364;2023-05-14T05:05:58;5.50;;;2.83;;
36475;SDS011;56615;42.682;23.364;2023-05-14T05:08:38;4.72;;;2.92;;
36475;SDS011;56615;42.682;23.364;2023-05-14T05:11:11;4.57;;;2.83;;
36475;SDS011;56615;42.682;23.364;2023-05-14T05:13:58;5.47;;;3.20;;
36475;SDS011;56615;42.682;23.364;2023-05-14T05:16:24;7.55;;;3.05;;
36475;SDS011;56615;42.682;23.364;2023-05-14T05:18:54;6.45;;;3.28;;
36475;SDS011;56615;42.682;23.364;2023-05-14T05:21:42;6.55;;;3.17;;
36475;SDS011;56615;42.682;23.364;2023-05-14T05:24:13;5.65;;;3.10;;
36475;SDS011;56615;42.682;23.364;2023-05-14T05:32:57;5.28;;;3.10;;
36475;SDS011;56615;42.682;23.364;2023-05-14T05:35:26;6.20;;;3.28;;
36475;SDS011;56615;42.682;23.364;2023-05-14T05:37:56;8.20;;;3.50;;
36475;SDS011;56615;42.682;23.364;2023-05-14T05:40:24;7.95;;;3.28;;
36475;SDS011;56615;42.682;23.364;2023-05-14T05:42:52;6.53;;;3.22;;
36475;SDS011;56615;42.682;23.364;2023-05-14T05:45:18;5.50;;;3.10;;
36475;SDS011;56615;42.682;23.364;2023-05-14T05:47:43;7.25;;;3.50;;
36475;SDS011;56615;42.682;23.364;2023-05-14T05:50:09;8.07;;;3.60;;
36475;SDS011;56615;42.682;23.364;2023-05-14T05:52:38;5.57;;;3.33;;
36475;SDS011;56615;42.682;23.364;2023-05-14T05:55:04;7.25;;;3.60;;
36475;SDS011;56615;42.682;23.364;2023-05-14T05:57:30;7.07;;;3.95;;
36475;SDS011;56615;42.682;23.364;2023-05-14T05:59:56;8.02;;;3.97;;
36475;SDS011;56615;42.682;23.364;2023-05-14T06:02:22;8.50;;;4.22;;
36475;SDS011;56615;42.682;23.364;2023-05-14T06:04:51;7.10;;;3.42;;
36475;SDS011;56615;42.682;23.364;2023-05-14T06:07:17;9.52;;;4.32;;
36475;SDS011;56615;42.682;23.364;2023-05-14T06:09:42;10.50;;;4.00;;
36475;SDS011;56615;42.682;23.364;2023-05-14T06:12:08;8.68;;;4.18;;
36475;SDS011;56615;42.682;23.364;2023-05-14T06:14:33;7.13;;;4.07;;
36475;SDS011;56615;42.682;23.364;2023-05-14T06:16:58;8.27;;;4.22;;
36475;SDS011;56615;42.682;23.364;2023-05-14T06:19:27;8.55;;;4.40;;
36475;SDS011;56615;42.682;23.364;2023-05-14T06:21:52;7.50;;;3.90;;
36475;SDS011;56615;42.682;23.364;2023-05-14T06:24:19;8.20;;;3.75;;
36475;SDS011;56615;42.682;23.364;2023-05-14T06:26:45;8.60;;;4.28;;
36475;SDS011;56615;42.682;23.364;2023-05-14T06:29:12;8.30;;;4.13;;
36475;SDS011;56615;42.682;23.364;2023-05-14T06:31:38;6.45;;;3.88;;
36475;SDS011;56615;42.682;23.364;2023-05-14T06:34:05;8.93;;;4.90;;
36475;SDS011;56615;42.682;23.364;2023-05-14T06:36:31;6.82;;;4.15;;
36475;SDS011;56615;42.682;23.364;2023-05-14T06:38:57;8.73;;;4.38;;
36475;SDS011;56615;42.682;23.364;2023-05-14T06:41:23;9.32;;;4.68;;
36475;SDS011;56615;42.682;23.364;2023-05-14T06:43:48;9.18;;;4.50;;
36475;SDS011;56615;42.682;23.364;2023-05-14T06:46:14;11.38;;;4.80;;
36475;SDS011;56615;42.682;23.364;2023-05-14T06:48:40;10.05;;;4.40;;
36475;SDS011;56615;42.682;23.364;2023-05-14T06:51:05;8.60;;;4.78;;
36475;SDS011;56615;42.682;23.364;2023-05-14T06:53:30;10.10;;;5.25;;
36475;SDS011;56615;42.682;23.364;2023-05-14T06:56:01;10.80;;;5.10;;
36475;SDS011;56615;42.682;23.364;2023-05-14T07:00:56;9.20;;;5.47;;
36475;SDS011;56615;42.682;23.364;2023-05-14T07:03:22;10.93;;;5.60;;
36475;SDS011;56615;42.682;23.364;2023-05-14T07:05:47;12.18;;;6.00;;
36475;SDS011;56615;42.682;23.364;2023-05-14T07:08:13;12.57;;;6.22;;
36475;SDS011;56615;42.682;23.364;2023-05-14T07:10:40;12.00;;;5.97;;
36475;SDS011;56615;42.682;23.364;2023-05-14T07:13:06;11.73;;;6.35;;
36475;SDS011;56615;42.682;23.364;2023-05-14T07:15:32;10.73;;;5.28;;
36475;SDS011;56615;42.682;23.364;2023-05-14T07:18:01;8.95;;;5.65;;
36475;SDS011;56615;42.682;23.364;2023-05-14T07:20:26;12.50;;;5.10;;
36475;SDS011;56615;42.682;23.364;2023-05-14T07:22:53;10.27;;;5.25;;
36475;SDS011;56615;42.682;23.364;2023-05-14T07:25:18;10.68;;;4.97;;
36475;SDS011;56615;42.682;23.364;2023-05-14T07:27:44;10.20;;;5.50;;
36475;SDS011;56615;42.682;23.364;2023-05-14T07:30:10;8.38;;;4.68;;
36475;SDS011;56615;42.682;23.364;2023-05-14T07:32:35;11.27;;;5.22;;
36475;SDS011;56615;42.682;23.364;2023-05-14T07:35:01;10.70;;;5.30;;
36475;SDS011;56615;42.682;23.364;2023-05-14T07:37:26;8.80;;;5.03;;
36475;SDS011;56615;42.682;23.364;2023-05-14T07:39:52;10.45;;;5.80;;
36475;SDS011;56615;42.682;23.364;2023-05-14T07:42:19;11.13;;;5.80;;
36475;SDS011;56615;42.682;23.364;2023-05-14T07:44:45;12.13;;;5.85;;
36475;SDS011;56615;42.682;23.364;2023-05-14T07:47:11;13.13;;;5.47;;
36475;SDS011;56615;42.682;23.364;2023-05-14T07:49:36;10.05;;;5.65;;
36475;SDS011;56615;42.682;23.364;2023-05-14T07:52:04;11.88;;;5.78;;
36475;SDS011;56615;42.682;23.364;2023-05-14T07:54:32;11.00;;;6.03;;
36475;SDS011;56615;42.682;23.364;2023-05-14T07:56:59;11.55;;;5.75;;
36475;SDS011;56615;42.682;23.364;2023-05-14T07:59:24;10.13;;;5.50;;
36475;SDS011;56615;42.682;23.364;2023-05-14T08:01:50;10.63;;;5.22;;
36475;SDS011;56615;42.682;23.364;2023-05-14T08:04:15;11.18;;;5.70;;
36475;SDS011;56615;42.682;23.364;2023-05-14T08:06:43;9.80;;;5.38;;
36475;SDS011;56615;42.682;23.364;2023-05-14T08:09:10;11.13;;;5.68;;
36475;SDS011;56615;42.682;23.364;2023-05-14T08:11:38;10.50;;;5.50;;
36475;SDS011;56615;42.682;23.364;2023-05-14T08:14:05;12.32;;;5.82;;
36475;SDS011;56615;42.682;23.364;2023-05-14T08:16:39;11.18;;;6.05;;
36475;SDS011;56615;42.682;23.364;2023-05-14T08:19:13;10.13;;;5.20;;
36475;SDS011;56615;42.682;23.364;2023-05-14T08:21:45;10.98;;;5.72;;
36475;SDS011;56615;42.682;23.364;2023-05-14T08:24:11;9.13;;;5.10;;
36475;SDS011;56615;42.682;23.364;2023-05-14T08:26:40;11.15;;;5.65;;
36475;SDS011;56615;42.682;23.364;2023-05-14T08:29:06;10.70;;;5.30;;
36475;SDS011;56615;42.682;23.364;2023-05-14T08:31:36;10.23;;;5.40;;
36475;SDS011;56615;42.682;23.364;2023-05-14T08:34:02;8.05;;;5.13;;
36475;SDS011;56615;42.682;23.364;2023-05-14T08:36:32;8.38;;;4.80;;
36475;SDS011;56615;42.682;23.364;2023-05-14T08:38:58;7.90;;;4.60;;
36475;SDS011;56615;42.682;23.364;2023-05-14T08:41:26;10.05;;;5.15;;
36475;SDS011;56615;42.682;23.364;2023-05-14T08:44:04;9.88;;;5.22;;
36475;SDS011;56615;42.682;23.364;2023-05-14T08:46:36;10.80;;;5.32;;
36475;SDS011;56615;42.682;23.364;2023-05-14T08:52:01;10.55;;;5.40;;
36475;SDS011;56615;42.682;23.364;2023-05-14T08:54:50;8.93;;;5.43;;
36475;SDS011;56615;42.682;23.364;2023-05-14T08:57:17;8.88;;;5.22;;
36475;SDS011;56615;42.682;23.364;2023-05-14T08:59:48;9.17;;;5.37;;
36475;SDS011;56615;42.682;23.364;2023-05-14T09:02:14;9.90;;;5.85;;
36475;SDS011;56615;42.682;23.364;2023-05-14T09:04:41;13.82;;;5.70;;
36475;SDS011;56615;42.682;23.364;2023-05-14T09:07:10;9.20;;;5.70;;
36475;SDS011;56615;42.682;23.364;2023-05-14T09:09:41;10.35;;;6.00;;
36475;SDS011;56615;42.682;23.364;2023-05-14T09:12:09;8.90;;;5.50;;
36475;SDS011;56615;42.682;23.364;2023-05-14T09:14:36;9.52;;;6.00;;
36475;SDS011;56615;42.682;23.364;2023-05-14T09:17:02;8.80;;;5.22;;
36475;SDS011;56615;42.682;23.364;2023-05-14T09:19:29;10.20;;;5.80;;
36475;SDS011;56615;42.682;23.364;2023-05-14T09:21:55;9.90;;;5.38;;
36475;SDS011;56615;42.682;23.364;2023-05-14T09:24:23;10.07;;;5.35;;
36475;SDS011;56615;42.682;23.364;2023-05-14T09:26:52;12.02;;;5.50;;
36475;SDS011;56615;42.682;23.364;2023-05-14T09:29:20;8.18;;;5.45;;
36475;SDS011;56615;42.682;23.364;2023-05-14T09:31:55;10.05;;;5.47;;
36475;SDS011;56615;42.682;23.364;2023-05-14T09:34:28;9.18;;;5.28;;
36475;SDS011;56615;42.682;23.364;2023-05-14T09:37:04;9.13;;;5.50;;
36475;SDS011;56615;42.682;23.364;2023-05-14T09:39:33;10.23;;;6.03;;
36475;SDS011;56615;42.682;23.364;2023-05-14T09:42:00;8.93;;;5.75;;
36475;SDS011;56615;42.682;23.364;2023-05-14T09:44:26;10.50;;;5.55;;
36475;SDS011;56615;42.682;23.364;2023-05-14T09:46:53;9.75;;;5.85;;
36475;SDS011;56615;42.682;23.364;2023-05-14T09:49:19;11.50;;;5.45;;
36475;SDS011;56615;42.682;23.364;2023-05-14T09:51:45;10.55;;;5.75;;
36475;SDS011;56615;42.682;23.364;2023-05-14T09:54:11;11.07;;;5.78;;
36475;SDS011;56615;42.682;23.364;2023-05-14T09:56:38;9.35;;;5.63;;
36475;SDS011;56615;42.682;23.364;2023-05-14T09:59:12;11.18;;;6.35;;
36475;SDS011;56615;42.682;23.364;2023-05-14T10:01:37;13.27;;;6.70;;
36475;SDS011;56615;42.682;23.364;2023-05-14T10:04:05;10.80;;;6.22;;
36475;SDS011;56615;42.682;23.364;2023-05-14T10:06:35;10.57;;;6.30;;
36475;SDS011;56615;42.682;23.364;2023-05-14T10:11:50;11.77;;;6.28;;
36475;SDS011;56615;42.682;23.364;2023-05-14T10:14:20;20.98;;;8.65;;
36475;SDS011;56615;42.682;23.364;2023-05-14T10:16:49;11.32;;;6.50;;
36475;SDS011;56615;42.682;23.364;2023-05-14T10:19:15;9.48;;;6.00;;
36475;SDS011;56615;42.682;23.364;2023-05-14T10:21:52;11.00;;;6.60;;
36475;SDS011;56615;42.682;23.364;2023-05-14T10:24:20;12.07;;;6.32;;
36475;SDS011;56615;42.682;23.364;2023-05-14T10:26:46;10.57;;;6.30;;
36475;SDS011;56615;42.682;23.364;2023-05-14T10:29:12;9.55;;;5.80;;
36475;SDS011;56615;42.682;23.364;2023-05-14T10:31:53;12.48;;;7.10;;
36475;SDS011;56615;42.682;23.364;2023-05-14T10:34:38;9.98;;;6.22;;
36475;SDS011;56615;42.682;23.364;2023-05-14T10:40:00;12.68;;;7.88;;
36475;SDS011;56615;42.682;23.364;2023-05-14T10:42:38;10.77;;;6.95;;
36475;SDS011;56615;42.682;23.364;2023-05-14T10:45:24;12.38;;;7.55;;
36475;SDS011;56615;42.682;23.364;2023-05-14T10:48:47;12.23;;;6.80;;
36475;SDS011;56615;42.682;23.364;2023-05-14T10:51:30;10.77;;;6.75;;
36475;SDS011;56615;42.682;23.364;2023-05-14T10:54:33;10.60;;;6.15;;
36475;SDS011;56615;42.682;23.364;2023-05-14T10:56:59;11.57;;;6.80;;
36475;SDS011;56615;42.682;23.364;2023-05-14T10:59:26;14.63;;;7.38;;
36475;SDS011;56615;42.682;23.364;2023-05-14T11:01:52;10.68;;;6.72;;
36475;SDS011;56615;42.682;23.364;2023-05-14T11:04:18;9.18;;;6.15;;
36475;SDS011;56615;42.682;23.364;2023-05-14T11:06:45;10.90;;;6.82;;
36475;SDS011;56615;42.682;23.364;2023-05-14T11:09:14;12.02;;;7.00;;
36475;SDS011;56615;42.682;23.364;2023-05-14T11:11:44;11.68;;;6.78;;
36475;SDS011;56615;42.682;23.364;2023-05-14T11:14:13;11.07;;;7.38;;
36475;SDS011;56615;42.682;23.364;2023-05-14T11:16:42;12.30;;;7.85;;
36475;SDS011;56615;42.682;23.364;2023-05-14T11:22:41;11.50;;;7.22;;
36475;SDS011;56615;42.682;23.364;2023-05-14T11:25:09;14.75;;;7.18;;
36475;SDS011;56615;42.682;23.364;2023-05-14T11:27:43;11.93;;;7.13;;
36475;SDS011;56615;42.682;23.364;2023-05-14T11:30:15;10.50;;;6.97;;
36475;SDS011;56615;42.682;23.364;2023-05-14T11:35:20;10.60;;;6.22;;
36475;SDS011;56615;42.682;23.364;2023-05-14T11:37:50;10.45;;;7.03;;
36475;SDS011;56615;42.682;23.364;2023-05-14T11:40:20;11.90;;;6.95;;
36475;SDS011;56615;42.682;23.364;2023-05-14T11:42:50;12.23;;;6.82;;
36475;SDS011;56615;42.682;23.364;2023-05-14T11:45:28;11.45;;;7.70;;
36475;SDS011;56615;42.682;23.364;2023-05-14T11:48:15;13.00;;;7.05;;
36475;SDS011;56615;42.682;23.364;2023-05-14T11:50:46;12.23;;;7.53;;
36475;SDS011;56615;42.682;23.364;2023-05-14T11:53:18;12.10;;;7.75;;
36475;SDS011;56615;42.682;23.364;2023-05-14T11:55:54;12.00;;;8.85;;
36475;SDS011;56615;42.682;23.364;2023-05-14T11:58:21;13.20;;;8.23;;
36475;SDS011;56615;42.682;23.364;2023-05-14T12:00:51;10.70;;;7.22;;
36475;SDS011;56615;42.682;23.364;2023-05-14T12:03:18;9.95;;;7.22;;
36475;SDS011;56615;42.682;23.364;2023-05-14T12:05:58;10.50;;;7.05;;
36475;SDS011;56615;42.682;23.364;2023-05-14T12:08:26;10.52;;;6.78;;
36475;SDS011;56615;42.682;23.364;2023-05-14T12:10:57;10.07;;;6.80;;
36475;SDS011;56615;42.682;23.364;2023-05-14T12:13:28;10.35;;;6.78;;
36475;SDS011;56615;42.682;23.364;2023-05-14T12:15:56;11.57;;;6.60;;
36475;SDS011;56615;42.682;23.364;2023-05-14T12:18:23;8.63;;;6.45;;
36475;SDS011;56615;42.682;23.364;2023-05-14T12:20:49;10.65;;;6.72;;
36475;SDS011;56615;42.682;23.364;2023-05-14T12:23:16;9.90;;;6.60;;
36475;SDS011;56615;42.682;23.364;2023-05-14T12:25:49;11.27;;;7.00;;
36475;SDS011;56615;42.682;23.364;2023-05-14T12:28:15;11.32;;;7.78;;
36475;SDS011;56615;42.682;23.364;2023-05-14T12:30:41;11.27;;;7.57;;
36475;SDS011;56615;42.682;23.364;2023-05-14T12:33:07;11.15;;;7.18;;
36475;SDS011;56615;42.682;23.364;2023-05-14T12:35:33;10.05;;;7.43;;
36475;SDS011;56615;42.682;23.364;2023-05-14T12:38:03;9.45;;;6.93;;
36475;SDS011;56615;42.682;23.364;2023-05-14T12:40:28;9.40;;;6.88;;
36475;SDS011;56615;42.682;23.364;2023-05-14T12:42:56;10.05;;;6.55;;
36475;SDS011;56615;42.682;23.364;2023-05-14T12:45:21;9.98;;;7.03;;
36475;SDS011;56615;42.682;23.364;2023-05-14T12:47:47;10.20;;;6.88;;
36475;SDS011;56615;42.682;23.364;2023-05-14T12:50:12;11.18;;;7.15;;
36475;SDS011;56615;42.682;23.364;2023-05-14T12:52:38;10.63;;;7.45;;
36475;SDS011;56615;42.682;23.364;2023-05-14T12:55:04;11.85;;;7.70;;
36475;SDS011;56615;42.682;23.364;2023-05-14T12:57:33;12.00;;;8.75;;
36475;SDS011;56615;42.682;23.364;2023-05-14T12:59:59;13.20;;;9.18;;
36475;SDS011;56615;42.682;23.364;2023-05-14T13:02:24;12.18;;;8.98;;
36475;SDS011;56615;42.682;23.364;2023-05-14T13:04:50;12.57;;;9.23;;
36475;SDS011;56615;42.682;23.364;2023-05-14T13:07:15;13.30;;;9.52;;
36475;SDS011;56615;42.682;23.364;2023-05-14T13:09:42;14.20;;;9.30;;
36475;SDS011;56615;42.682;23.364;2023-05-14T13:12:10;14.82;;;9.65;;
36475;SDS011;56615;42.682;23.364;2023-05-14T13:14:38;12.88;;;9.68;;
36475;SDS011;56615;42.682;23.364;2023-05-14T13:17:04;13.25;;;9.77;;
36475;SDS011;56615;42.682;23.364;2023-05-14T13:19:31;13.00;;;9.82;;
36475;SDS011;56615;42.682;23.364;2023-05-14T13:21:57;13.65;;;10.23;;
36475;SDS011;56615;42.682;23.364;2023-05-14T13:24:22;15.07;;;10.50;;
36475;SDS011;56615;42.682;23.364;2023-05-14T13:26:49;16.33;;;11.52;;
36475;SDS011;56615;42.682;23.364;2023-05-14T13:29:14;14.93;;;10.98;;
36475;SDS011;56615;42.682;23.364;2023-05-14T13:31:41;15.98;;;11.57;;
36475;SDS011;56615;42.682;23.364;2023-05-14T13:34:06;16.50;;;11.63;;
36475;SDS011;56615;42.682;23.364;2023-05-14T13:36:35;18.35;;;11.13;;
36475;SDS011;56615;42.682;23.364;2023-05-14T13:39:04;16.83;;;12.18;;
36475;SDS011;56615;42.682;23.364;2023-05-14T13:41:30;16.77;;;12.30;;
36475;SDS011;56615;42.682;23.364;2023-05-14T13:43:58;17.50;;;12.45;;
36475;SDS011;56615;42.682;23.364;2023-05-14T13:46:25;17.15;;;12.70;;
36475;SDS011;56615;42.682;23.364;2023-05-14T13:48:51;16.48;;;11.77;;
36475;SDS011;56615;42.682;23.364;2023-05-14T13:51:17;16.67;;;12.25;;
36475;SDS011;56615;42.682;23.364;2023-05-14T13:53:42;16.42;;;11.70;;
36475;SDS011;56615;42.682;23.364;2023-05-14T13:56:09;15.70;;;11.63;;
36475;SDS011;56615;42.682;23.364;2023-05-14T13:58:35;15.63;;;11.52;;
36475;SDS011;56615;42.682;23.364;2023-05-14T14:01:04;18.75;;;14.55;;
36475;SDS011;56615;42.682;23.364;2023-05-14T14:03:30;17.80;;;13.38;;
36475;SDS011;56615;42.682;23.364;2023-05-14T14:05:55;16.63;;;12.52;;
36475;SDS011;56615;42.682;23.364;2023-05-14T14:08:20;17.58;;;12.57;;
36475;SDS011;56615;42.682;23.364;2023-05-14T14:10:46;18.30;;;13.23;;
36475;SDS011;56615;42.682;23.364;2023-05-14T14:13:11;17.95;;;13.18;;
36475;SDS011;56615;42.682;23.364;2023-05-14T14:15:37;17.77;;;11.85;;
36475;SDS011;56615;42.682;23.364;2023-05-14T14:18:08;16.63;;;11.80;;
36475;SDS011;56615;42.682;23.364;2023-05-14T14:20:34;18.50;;;12.32;;
36475;SDS011;56615;42.682;23.364;2023-05-14T14:23:00;16.83;;;12.40;;
36475;SDS011;56615;42.682;23.364;2023-05-14T14:25:25;15.98;;;11.90;;
36475;SDS011;56615;42.682;23.364;2023-05-14T14:27:58;14.57;;;10.98;;
36475;SDS011;56615;42.682;23.364;2023-05-14T14:30:25;16.77;;;11.30;;
36475;SDS011;56615;42.682;23.364;2023-05-14T14:32:50;16.33;;;11.25;;
36475;SDS011;56615;42.682;23.364;2023-05-14T14:35:19;16.05;;;10.63;;
36475;SDS011;56615;42.682;23.364;2023-05-14T14:37:47;18.42;;;12.88;;
36475;SDS011;56615;42.682;23.364;2023-05-14T14:40:19;15.98;;;11.52;;
36475;SDS011;56615;42.682;23.364;2023-05-14T14:42:47;17.42;;;11.93;;
36475;SDS011;56615;42.682;23.364;2023-05-14T14:45:14;16.65;;;12.07;;
36475;SDS011;56615;42.682;23.364;2023-05-14T14:47:43;17.15;;;12.32;;
36475;SDS011;56615;42.682;23.364;2023-05-14T14:50:09;16.48;;;11.75;;
36475;SDS011;56615;42.682;23.364;2023-05-14T14:52:37;17.42;;;13.48;;
36475;SDS011;56615;42.682;23.364;2023-05-14T14:55:11;17.98;;;13.48;;
36475;SDS011;56615;42.682;23.364;2023-05-14T14:57:41;16.50;;;12.90;;
36475;SDS011;56615;42.682;23.364;2023-05-14T15:00:21;18.08;;;13.70;;
36475;SDS011;56615;42.682;23.364;2023-05-14T15:02:47;16.98;;;12.95;;
36475;SDS011;56615;42.682;23.364;2023-05-14T15:05:12;18.80;;;13.90;;
36475;SDS011;56615;42.682;23.364;2023-05-14T15:07:38;21.33;;;14.00;;
36475;SDS011;56615;42.682;23.364;2023-05-14T15:10:03;20.52;;;13.88;;
36475;SDS011;56615;42.682;23.364;2023-05-14T15:12:29;17.67;;;13.10;;
36475;SDS011;56615;42.682;23.364;2023-05-14T15:14:55;21.08;;;13.93;;
36475;SDS011;56615;42.682;23.364;2023-05-14T15:17:21;20.40;;;13.90;;
36475;SDS011;56615;42.682;23.364;2023-05-14T15:19:48;18.05;;;12.77;;
36475;SDS011;56615;42.682;23.364;2023-05-14T15:22:19;18.88;;;13.05;;
36475;SDS011;56615;42.682;23.364;2023-05-14T15:24:54;18.85;;;13.13;;
36475;SDS011;56615;42.682;23.364;2023-05-14T15:27:21;18.85;;;13.85;;
36475;SDS011;56615;42.682;23.364;2023-05-14T15:29:53;17.20;;;13.20;;
36475;SDS011;56615;42.682;23.364;2023-05-14T15:32:30;16.92;;;12.93;;
36475;SDS011;56615;42.682;23.364;2023-05-14T15:35:07;17.98;;;12.98;;
36475;SDS011;56615;42.682;23.364;2023-05-14T15:37:45;17.73;;;12.68;;
36475;SDS011;56615;42.682;23.364;2023-05-14T15:40:31;20.17;;;12.60;;
36475;SDS011;56615;42.682;23.364;2023-05-14T15:43:01;18.00;;;13.32;;
36475;SDS011;56615;42.682;23.364;2023-05-14T15:45:26;33.10;;;18.90;;
36475;SDS011;56615;42.682;23.364;2023-05-14T15:47:57;29.83;;;21.67;;
36475;SDS011;56615;42.682;23.364;2023-05-14T15:50:25;16.55;;;11.48;;
36475;SDS011;56615;42.682;23.364;2023-05-14T15:52:52;19.50;;;13.05;;
36475;SDS011;56615;42.682;23.364;2023-05-14T15:55:18;15.32;;;12.02;;